Terminal Aerodrome Forecast
Issued by NWS Binghamton, NY

Home | Current Version | Previous Version | Text Only | Print | Product List | Glossary On
Versions: 1 2 3 4 5 6 7 8 9 10 11 12 13 14 15 16 17 18 19 20 21
000
FTUS41 KBGM 261100
TAFBGM
TAF
KBGM 261128Z 2612/2712 28007KT P6SM OVC025
      TEMPO 2613/2617 BKN025
     FM261700 26008KT P6SM SCT030 SCT150
     FM262200 22006KT P6SM SCT200=

USA.gov is the U.S. government's official web portal to all federal, state and local government web resources and services.